Main page
METAR-TAF:

METAR-TAF

Airports :

Ohrid "St. Paul the Apostle" Airport

Ohrid, Macedonia

latitude: 41-07N, longitude: 020-48E, elevation: 760 m

Current weather observation

The report was made 10 hours and 52 minutes ago, at 18:30 UTC
Wind 2 kt from variable directions
Temperature 8°C
Humidity 42%
Pressure 1018 hPa
Visibility 10 km or more
Scattered clouds at a height of 5000 ft
Broken clouds at a height of 20000 ft

METAR: LWOH 051830Z VRB02KT 9999 SCT050 BKN200 08/M04 Q1018

Time: 06:22 (05:22 UTC)

Forecast

The report was made 2 hours and 52 minutes ago, at 02:30 UTC
Forecast valid from 06 at 03 UTC to 07 at 03 UTC
Wind 8 kt from the Southwest
Scattered clouds at a height of 4000 ft
Broken clouds at a height of 9000 ft
Temporary
from 06 at 04 UTC to 06 at 12 UTC
Broken clouds at a height of 3500 ft
Overcast at a height of 6000 ft
light rain

TAF: LWOH 060230Z 0603/0703 22008KT SCT040 BKN090 TEMPO 0604/0612 -RA BKN035 OVC060

Weather observations and forecasts of more than 4000 airports (METAR and TAF reports).

The available stations are represented by yellow and red dots on the map.

Hover mouse over dot to see the name of the station.

Then click to see weather observations and forecasts.

To change the map : click on the green buttons with a black cross to zoom in, on the green button with a dash to zoom out, or on the green arrows for adjacent maps.


METAR-TAF: